createdAt,value
2023-01-17T00:02:20.883Z,11.25
2023-01-17T00:05:07.123Z,11.23
2023-01-17T00:07:53.603Z,11.18
2023-01-17T00:10:26.142Z,11.19
2023-01-17T00:13:02.480Z,11.21
2023-01-17T00:15:31.856Z,11.21
2023-01-17T00:17:59.843Z,11.25
2023-01-17T00:20:49.625Z,11.23
2023-01-17T00:23:45.808Z,11.19
2023-01-17T00:26:18.154Z,11.14
2023-01-17T00:28:47.414Z,11.15
2023-01-17T00:31:16.690Z,11.15
2023-01-17T00:33:44.803Z,11.15
2023-01-17T00:36:13.347Z,11.15
2023-01-17T00:38:41.350Z,11.11
2023-01-17T00:41:15.135Z,11.11
2023-01-17T00:44:01.286Z,11.10
2023-01-17T00:46:47.764Z,11.10
2023-01-17T00:49:33.965Z,11.10
2023-01-17T00:52:20.575Z,11.08
2023-01-17T00:55:07.014Z,11.04
2023-01-17T00:57:53.881Z,11.01
2023-01-17T01:00:40.039Z,11.00
2023-01-17T01:03:30.674Z,10.94
2023-01-17T01:06:16.936Z,10.91
2023-01-17T01:09:03.718Z,10.90
2023-01-17T01:11:50.129Z,10.90
2023-01-17T01:14:36.797Z,10.91
2023-01-17T01:17:23.113Z,10.84
2023-01-17T01:20:09.784Z,10.83
2023-01-17T01:22:56.235Z,10.84
2023-01-17T01:25:42.915Z,10.85
2023-01-17T01:28:32.226Z,10.90
2023-01-17T01:31:20.924Z,10.92
2023-01-17T01:33:48.709Z,10.94
2023-01-17T01:36:16.712Z,10.94
2023-01-17T01:38:44.246Z,10.95
2023-01-17T01:41:12.418Z,10.96
2023-01-17T01:43:49.870Z,10.97
2023-01-17T01:46:35.374Z,10.97
2023-01-17T01:49:21.428Z,10.98
2023-01-17T01:51:55.827Z,11.00
2023-01-17T01:54:35.715Z,11.00
2023-01-17T01:57:08.750Z,11.02
2023-01-17T01:59:42.582Z,11.00
2023-01-17T02:02:10.945Z,11.00
2023-01-17T02:04:39.144Z,10.98
2023-01-17T02:07:24.068Z,10.99
2023-01-17T02:09:53.134Z,10.98
2023-01-17T02:12:22.249Z,10.97
2023-01-17T02:14:49.932Z,10.96
2023-01-17T02:17:45.287Z,10.96
2023-01-17T02:20:48.584Z,10.91
2023-01-17T02:23:28.151Z,10.88
2023-01-17T02:26:10.684Z,10.87
2023-01-17T02:29:10.914Z,10.85
2023-01-17T02:32:20.814Z,10.87
2023-01-17T02:35:13.718Z,10.87
2023-01-17T02:38:21.639Z,10.86
2023-01-17T02:41:00.978Z,10.85
2023-01-17T02:43:28.972Z,10.88
2023-01-17T02:45:56.879Z,10.92
2023-01-17T02:48:31.476Z,10.95
2023-01-17T02:51:18.195Z,10.97
2023-01-17T02:54:28.489Z,10.95
2023-01-17T02:57:24.664Z,10.96
2023-01-17T03:00:20.789Z,10.96
2023-01-17T03:03:10.652Z,10.93
2023-01-17T03:09:21.295Z,10.86
2023-01-17T03:11:49.444Z,10.85
2023-01-17T03:14:17.032Z,10.85
2023-01-17T03:16:45.304Z,10.87
2023-01-17T03:19:14.807Z,10.88
2023-01-17T03:21:43.046Z,10.89
2023-01-17T03:24:10.716Z,10.89
2023-01-17T03:26:38.710Z,10.91
2023-01-17T03:29:06.260Z,10.94
2023-01-17T03:31:34.296Z,10.96
2023-01-17T03:34:02.369Z,10.97
2023-01-17T03:36:30.352Z,10.97
2023-01-17T03:38:58.014Z,10.99
2023-01-17T03:41:25.928Z,11.02
2023-01-17T03:43:53.587Z,11.02
2023-01-17T03:46:28.677Z,11.02
2023-01-17T03:49:15.184Z,11.04
2023-01-17T03:51:43.238Z,11.04
2023-01-17T03:54:10.895Z,11.04
2023-01-17T03:56:38.748Z,10.96
2023-01-17T03:59:06.324Z,10.89
2023-01-17T04:01:34.548Z,10.94
2023-01-17T04:04:02.222Z,10.92
2023-01-17T04:06:30.204Z,10.96
2023-01-17T04:08:57.912Z,10.93
2023-01-17T04:11:25.874Z,10.98
2023-01-17T04:13:54.223Z,10.98
2023-01-17T04:16:24.431Z,10.85
2023-01-17T04:18:52.294Z,10.81
2023-01-17T04:21:20.667Z,10.81
2023-01-17T04:23:48.264Z,10.81
2023-01-17T04:26:16.432Z,10.81
2023-01-17T04:28:43.974Z,10.82
2023-01-17T04:31:17.417Z,10.82
2023-01-17T04:33:45.298Z,10.81
2023-01-17T04:36:13.199Z,10.81
2023-01-17T04:38:40.695Z,10.78
2023-01-17T04:41:08.674Z,10.73
2023-01-17T04:43:36.348Z,10.67
2023-01-17T04:46:09.990Z,10.63
2023-01-17T04:48:38.396Z,10.62
2023-01-17T04:51:06.800Z,10.62
2023-01-17T04:53:34.366Z,10.64
2023-01-17T04:56:02.447Z,10.63
2023-01-17T04:58:30.892Z,10.67
2023-01-17T05:01:04.231Z,10.68
2023-01-17T05:03:32.670Z,10.71
2023-01-17T05:06:01.891Z,10.75
2023-01-17T05:08:29.653Z,10.78
2023-01-17T05:10:57.690Z,10.78
2023-01-17T05:13:25.388Z,10.83
2023-01-17T05:15:53.453Z,10.88
2023-01-17T05:18:21.187Z,10.90
2023-01-17T05:20:49.141Z,10.90
2023-01-17T05:23:17.120Z,10.91
2023-01-17T05:25:45.243Z,10.90
2023-01-17T05:28:13.959Z,10.89
2023-01-17T05:30:41.877Z,10.89
2023-01-17T05:33:10.521Z,10.85
2023-01-17T05:35:38.518Z,10.81
2023-01-17T05:38:06.256Z,10.79
2023-01-17T05:40:34.840Z,10.81
2023-01-17T05:43:03.936Z,10.81
2023-01-17T05:45:33.652Z,10.79
2023-01-17T05:48:02.237Z,10.78
2023-01-17T05:50:35.028Z,10.78
2023-01-17T05:53:10.603Z,10.78
2023-01-17T05:55:40.300Z,10.78
2023-01-17T05:58:14.088Z,10.76
2023-01-17T06:00:42.500Z,10.76
2023-01-17T06:03:10.678Z,10.78
2023-01-17T06:05:38.937Z,10.78
2023-01-17T06:08:07.218Z,10.77
2023-01-17T06:10:35.655Z,10.77
2023-01-17T06:13:05.667Z,10.77
2023-01-17T06:15:35.618Z,10.77
2023-01-17T06:18:12.981Z,10.74
2023-01-17T06:20:41.421Z,10.76
2023-01-17T06:23:13.517Z,10.74
2023-01-17T06:25:46.165Z,10.75
2023-01-17T06:28:20.919Z,10.78
2023-01-17T06:30:49.419Z,10.79
2023-01-17T06:33:17.662Z,10.78
2023-01-17T06:35:53.148Z,10.77
2023-01-17T06:38:21.548Z,10.78
2023-01-17T06:40:49.421Z,10.78
2023-01-17T06:43:17.525Z,10.79
2023-01-17T06:45:45.226Z,10.79
2023-01-17T06:48:13.175Z,10.81
2023-01-17T06:50:40.849Z,10.85
2023-01-17T06:53:10.121Z,10.89
2023-01-17T06:55:40.434Z,10.92
2023-01-17T06:58:10.061Z,10.93
2023-01-17T07:00:40.525Z,10.97
2023-01-17T07:03:24.533Z,10.97
2023-01-17T07:05:53.229Z,11.00
2023-01-17T07:08:21.247Z,11.00
2023-01-17T07:10:49.519Z,10.99
2023-01-17T07:13:17.555Z,11.01
2023-01-17T07:15:45.442Z,11.01
2023-01-17T07:18:13.414Z,11.02
2023-01-17T07:20:43.930Z,11.05
2023-01-17T07:23:12.042Z,11.07
2023-01-17T07:25:39.758Z,11.05
2023-01-17T07:28:07.987Z,11.06
2023-01-17T07:30:36.722Z,11.07
2023-01-17T07:33:04.798Z,11.03
2023-01-17T07:35:32.427Z,11.02
2023-01-17T07:38:00.531Z,10.96
2023-01-17T07:40:28.293Z,10.85
2023-01-17T07:43:02.449Z,10.76
2023-01-17T07:45:30.223Z,10.73
2023-01-17T07:47:58.503Z,10.70
2023-01-17T07:50:26.279Z,10.71
2023-01-17T07:52:54.426Z,10.70
2023-01-17T07:55:22.155Z,10.73
2023-01-17T07:57:51.070Z,10.76
2023-01-17T08:00:19.738Z,10.76
2023-01-17T08:02:47.727Z,10.82
2023-01-17T08:05:16.214Z,10.88
2023-01-17T08:07:44.622Z,10.97
2023-01-17T08:10:16.969Z,10.97
2023-01-17T08:12:49.994Z,10.91
2023-01-17T08:15:19.358Z,10.92
2023-01-17T08:17:54.319Z,10.93
2023-01-17T08:20:22.185Z,10.96
2023-01-17T08:22:56.858Z,11.02
2023-01-17T08:25:26.556Z,11.11
2023-01-17T08:27:58.406Z,11.21
2023-01-17T08:30:27.418Z,11.29
2023-01-17T08:32:55.766Z,11.35
2023-01-17T08:35:24.001Z,11.40
2023-01-17T08:37:55.788Z,11.43
2023-01-17T08:40:24.415Z,11.42
2023-01-17T08:43:00.904Z,11.42
2023-01-17T08:45:29.327Z,11.47
2023-01-17T08:47:59.198Z,11.52
2023-01-17T08:50:27.609Z,11.54
2023-01-17T08:53:01.286Z,11.55
2023-01-17T08:55:29.256Z,11.57
2023-01-17T08:57:57.559Z,11.59
2023-01-17T09:00:25.926Z,11.64
2023-01-17T09:02:54.283Z,11.69
2023-01-17T09:05:22.454Z,11.74
2023-01-17T09:07:50.538Z,11.78
2023-01-17T09:10:18.500Z,11.80
2023-01-17T09:12:46.830Z,11.85
2023-01-17T09:15:18.087Z,11.86
2023-01-17T09:17:47.894Z,11.89
2023-01-17T09:20:16.041Z,11.92
2023-01-17T09:23:01.572Z,11.94
2023-01-17T09:25:32.208Z,11.96
2023-01-17T09:28:00.640Z,11.96
2023-01-17T09:30:29.548Z,11.94
2023-01-17T09:32:57.635Z,11.94
2023-01-17T09:35:25.559Z,11.95
2023-01-17T09:37:55.297Z,11.95
2023-01-17T09:40:27.915Z,11.98
2023-01-17T09:43:11.562Z,12.01
2023-01-17T09:45:39.707Z,12.03
2023-01-17T09:48:17.958Z,12.06
2023-01-17T09:51:07.623Z,12.11
2023-01-17T09:53:39.399Z,12.15
2023-01-17T09:56:29.894Z,12.21
2023-01-17T09:59:35.619Z,12.30
2023-01-17T10:02:39.623Z,12.40
2023-01-17T10:05:56.490Z,12.47
2023-01-17T10:08:52.693Z,12.53
2023-01-17T10:12:00.720Z,12.57
2023-01-17T10:15:07.309Z,12.52
2023-01-17T10:17:50.959Z,12.53
2023-01-17T10:20:45.008Z,12.58
2023-01-17T10:23:44.548Z,12.62
2023-01-17T10:26:24.572Z,12.65
2023-01-17T10:28:58.679Z,12.70
2023-01-17T10:31:40.194Z,12.76
2023-01-17T10:34:37.814Z,12.83
2023-01-17T10:37:29.857Z,12.89
2023-01-17T10:40:10.592Z,12.89
2023-01-17T10:42:52.420Z,12.87
2023-01-17T10:45:28.915Z,12.89
2023-01-17T10:48:27.905Z,12.93
2023-01-17T10:51:27.297Z,13.00
2023-01-17T10:54:27.958Z,13.06
2023-01-17T10:56:55.924Z,13.10
2023-01-17T10:59:32.075Z,13.15
2023-01-17T11:02:07.517Z,13.20
2023-01-17T11:04:43.132Z,13.28
2023-01-17T11:07:20.387Z,13.39
2023-01-17T11:09:51.954Z,13.51
2023-01-17T11:12:30.165Z,13.60
2023-01-17T11:15:17.902Z,13.69
2023-01-17T11:18:17.205Z,13.86
2023-01-17T11:20:46.100Z,13.95
2023-01-17T11:23:33.505Z,14.00
2023-01-17T11:26:03.578Z,14.04
2023-01-17T11:28:34.283Z,14.04
2023-01-17T11:31:22.872Z,14.03
2023-01-17T11:34:06.267Z,14.01
2023-01-17T11:36:34.192Z,14.02
2023-01-17T11:39:18.534Z,14.06
2023-01-17T11:41:47.940Z,14.06
2023-01-17T11:44:26.062Z,14.07
2023-01-17T11:47:14.607Z,14.01
2023-01-17T11:49:48.041Z,13.93
2023-01-17T11:52:31.976Z,13.88
2023-01-17T11:54:59.971Z,13.78
2023-01-17T11:57:32.869Z,13.72
2023-01-17T12:00:40.639Z,13.69
2023-01-17T12:03:42.702Z,13.62
2023-01-17T12:06:58.355Z,13.49
2023-01-17T12:09:40.205Z,13.37
2023-01-17T12:12:52.233Z,13.31
2023-01-17T12:15:47.632Z,13.23
2023-01-17T12:18:49.868Z,13.13
2023-01-17T12:21:34.286Z,13.06
2023-01-17T12:24:16.806Z,13.01
2023-01-17T12:27:12.810Z,12.94
2023-01-17T12:30:10.546Z,12.93
2023-01-17T12:33:10.961Z,12.91
2023-01-17T12:36:17.695Z,12.90
2023-01-17T12:38:48.742Z,12.88
2023-01-17T12:41:31.714Z,12.88
2023-01-17T12:44:11.657Z,12.87
2023-01-17T12:47:02.960Z,12.87
2023-01-17T12:49:46.158Z,12.87
2023-01-17T12:52:40.270Z,12.85
2023-01-17T12:55:19.679Z,12.84
2023-01-17T12:57:57.309Z,12.85
2023-01-17T13:00:29.873Z,12.85
2023-01-17T13:03:29.754Z,12.84
2023-01-17T13:06:00.496Z,12.87
2023-01-17T13:08:44.227Z,12.91
2023-01-17T13:11:46.850Z,13.00
2023-01-17T13:14:14.688Z,13.02
2023-01-17T13:17:37.360Z,13.10
2023-01-17T13:20:31.829Z,13.12
2023-01-17T13:23:28.428Z,13.13
2023-01-17T13:25:59.508Z,13.16
2023-01-17T13:28:58.081Z,13.20
2023-01-17T13:31:48.037Z,13.25
2023-01-17T13:34:21.288Z,13.28
2023-01-17T13:37:41.050Z,13.33
2023-01-17T13:40:22.585Z,13.29
2023-01-17T13:43:04.722Z,13.26
2023-01-17T13:45:39.199Z,13.21
2023-01-17T13:48:12.790Z,13.16
2023-01-17T13:50:53.074Z,13.10
2023-01-17T13:53:33.000Z,13.06
2023-01-17T13:56:18.702Z,12.96
2023-01-17T13:58:50.428Z,12.90
2023-01-17T14:01:24.194Z,12.83
2023-01-17T14:03:52.055Z,12.79
2023-01-17T14:06:41.708Z,12.76
2023-01-17T14:09:39.763Z,12.73
2023-01-17T14:12:16.318Z,12.70
2023-01-17T14:14:49.689Z,12.71
2023-01-17T14:17:23.181Z,12.69
2023-01-17T14:20:19.324Z,12.68
2023-01-17T14:22:57.490Z,12.67
2023-01-17T14:25:30.098Z,12.63
2023-01-17T14:28:06.448Z,12.61
2023-01-17T14:30:38.139Z,12.59
2023-01-17T14:33:20.063Z,12.57
2023-01-17T14:36:01.247Z,12.56
2023-01-17T14:38:34.611Z,12.55
2023-01-17T14:41:07.999Z,12.56
2023-01-17T14:43:46.915Z,12.58
2023-01-17T14:46:33.546Z,12.57
2023-01-17T14:49:17.866Z,12.57
2023-01-17T14:52:04.574Z,12.51
2023-01-17T14:54:32.673Z,12.48
2023-01-17T14:57:29.526Z,12.46
2023-01-17T15:00:38.385Z,12.46
2023-01-17T15:03:12.796Z,12.45
2023-01-17T15:05:48.562Z,12.46
2023-01-17T15:08:20.523Z,12.45
2023-01-17T15:11:05.733Z,12.39
2023-01-17T15:13:49.889Z,12.38
2023-01-17T15:16:23.274Z,12.32
2023-01-17T15:18:53.906Z,12.29
2023-01-17T15:21:28.142Z,12.31
2023-01-17T15:24:08.990Z,12.28
2023-01-17T15:26:43.746Z,12.29
2023-01-17T15:29:32.524Z,12.31
2023-01-17T15:32:05.885Z,12.35
2023-01-17T15:34:43.790Z,12.39
2023-01-17T15:37:43.816Z,12.41
2023-01-17T15:40:20.538Z,12.42
2023-01-17T15:42:58.832Z,12.41
2023-01-17T15:45:32.826Z,12.42
2023-01-17T15:48:42.265Z,12.45
2023-01-17T15:51:13.003Z,12.47
2023-01-17T15:53:42.845Z,12.53
2023-01-17T15:56:31.938Z,12.56
2023-01-17T15:59:46.511Z,12.59
2023-01-17T16:02:32.755Z,12.62
2023-01-17T16:05:21.833Z,12.63
2023-01-17T16:07:58.324Z,12.66
2023-01-17T16:10:28.980Z,12.65
2023-01-17T16:12:56.915Z,12.65
2023-01-17T16:15:28.825Z,12.63
2023-01-17T16:18:02.833Z,12.61
2023-01-17T16:20:48.941Z,12.60
2023-01-17T16:23:17.327Z,12.59
2023-01-17T16:25:46.300Z,12.58
2023-01-17T16:28:14.029Z,12.59
2023-01-17T16:30:41.993Z,12.55
2023-01-17T16:33:13.522Z,12.55
2023-01-17T16:35:43.077Z,12.56
2023-01-17T16:38:15.510Z,12.58
2023-01-17T16:40:45.765Z,12.60
2023-01-17T16:43:16.842Z,12.61
2023-01-17T16:45:50.127Z,12.62
2023-01-17T16:48:19.437Z,12.64
2023-01-17T16:50:53.390Z,12.64
2023-01-17T16:53:25.403Z,12.64
2023-01-17T16:55:58.068Z,12.62
2023-01-17T16:58:30.091Z,12.58
2023-01-17T17:00:57.824Z,12.56
2023-01-17T17:03:25.734Z,12.54
2023-01-17T17:05:59.749Z,12.51
2023-01-17T17:08:29.590Z,12.51
2023-01-17T17:11:14.026Z,12.46
2023-01-17T17:13:44.781Z,12.40
2023-01-17T17:16:19.899Z,12.38
2023-01-17T17:19:08.150Z,12.34
2023-01-17T17:21:38.502Z,12.33
2023-01-17T17:24:08.861Z,12.31
2023-01-17T17:26:38.712Z,12.30
2023-01-17T17:29:13.436Z,12.30
2023-01-17T17:31:55.889Z,12.31
2023-01-17T17:34:29.417Z,12.34
2023-01-17T17:36:57.245Z,12.35
2023-01-17T17:39:29.392Z,12.36
2023-01-17T17:42:00.533Z,12.37
2023-01-17T17:44:31.326Z,12.37
2023-01-17T17:47:02.570Z,12.37
2023-01-17T17:49:41.187Z,12.35
2023-01-17T17:52:13.101Z,12.35
2023-01-17T17:54:44.190Z,12.37
2023-01-17T17:57:16.357Z,12.35
2023-01-17T17:59:56.961Z,12.37
2023-01-17T18:02:30.291Z,12.37
2023-01-17T18:05:03.186Z,12.39
2023-01-17T18:07:36.021Z,12.39
2023-01-17T18:10:11.946Z,12.40
2023-01-17T18:12:42.684Z,12.43
2023-01-17T18:15:15.260Z,12.45
2023-01-17T18:18:05.473Z,12.45
2023-01-17T18:20:36.804Z,12.45
2023-01-17T18:23:06.998Z,12.46
2023-01-17T18:25:41.631Z,12.48
2023-01-17T18:28:13.720Z,12.52
2023-01-17T18:30:44.851Z,12.57
2023-01-17T18:33:14.044Z,12.62
2023-01-17T18:35:55.767Z,12.72
2023-01-17T18:38:29.661Z,12.83
2023-01-17T18:41:09.313Z,12.95
2023-01-17T18:43:41.485Z,13.07
2023-01-17T18:46:13.849Z,13.20
2023-01-17T18:48:44.233Z,13.32
2023-01-17T18:51:18.505Z,13.42
2023-01-17T18:53:48.585Z,13.53
2023-01-17T18:56:25.010Z,13.67
2023-01-17T18:58:58.866Z,13.74
2023-01-17T19:01:35.349Z,13.81
2023-01-17T19:04:10.534Z,13.88
2023-01-17T19:06:50.386Z,13.95
2023-01-17T19:09:24.866Z,14.00
2023-01-17T19:12:01.662Z,14.03
2023-01-17T19:14:35.357Z,14.06
2023-01-17T19:17:09.652Z,14.07
2023-01-17T19:19:41.326Z,14.11
2023-01-17T19:22:12.040Z,14.14
2023-01-17T19:24:44.219Z,14.17
2023-01-17T19:27:14.406Z,14.19
2023-01-17T19:29:46.827Z,14.22
2023-01-17T19:32:16.851Z,14.24
2023-01-17T19:34:46.988Z,14.25
2023-01-17T19:37:15.408Z,14.24
2023-01-17T19:39:43.774Z,14.25
2023-01-17T19:42:16.401Z,14.28
2023-01-17T19:44:44.186Z,14.32
2023-01-17T19:47:12.319Z,14.33
2023-01-17T19:49:41.419Z,14.34
2023-01-17T19:52:09.357Z,14.38
2023-01-17T19:54:37.383Z,14.40
2023-01-17T19:57:05.480Z,14.43
2023-01-17T19:59:33.127Z,14.48
2023-01-17T20:02:01.404Z,14.47
2023-01-17T20:04:29.262Z,14.47
2023-01-17T20:06:57.097Z,14.49
2023-01-17T20:09:25.191Z,14.53
2023-01-17T20:11:53.563Z,14.51
2023-01-17T20:14:21.861Z,14.51
2023-01-17T20:16:51.436Z,14.52
2023-01-17T20:19:22.219Z,14.52
2023-01-17T20:21:50.105Z,14.54
2023-01-17T20:24:17.701Z,14.56
2023-01-17T20:26:46.059Z,14.58
2023-01-17T20:29:16.885Z,14.59
2023-01-17T20:31:46.093Z,14.58
2023-01-17T20:34:18.792Z,14.61
2023-01-17T20:36:47.615Z,14.60
2023-01-17T20:39:15.891Z,14.58
2023-01-17T20:41:46.303Z,14.59
2023-01-17T20:44:15.642Z,14.61
2023-01-17T20:46:43.970Z,14.63
2023-01-17T20:49:44.395Z,14.71
2023-01-17T20:52:15.351Z,14.85
2023-01-17T20:54:43.375Z,15.02
2023-01-17T20:57:11.551Z,15.15
2023-01-17T20:59:39.079Z,15.26
2023-01-17T21:02:10.690Z,15.38
2023-01-17T21:04:38.638Z,15.48
2023-01-17T21:07:06.851Z,15.53
2023-01-17T21:09:34.493Z,15.59
2023-01-17T21:12:02.541Z,15.67
2023-01-17T21:14:30.380Z,15.78
2023-01-17T21:16:58.587Z,15.85
2023-01-17T21:19:26.692Z,15.93
2023-01-17T21:21:56.333Z,15.93
2023-01-17T21:24:24.564Z,15.89
2023-01-17T21:26:53.066Z,15.81
2023-01-17T21:29:20.638Z,15.71
2023-01-17T21:31:48.667Z,15.62
2023-01-17T21:34:16.341Z,15.52
2023-01-17T21:36:45.341Z,15.43
2023-01-17T21:39:17.387Z,15.33
2023-01-17T21:41:49.684Z,15.25
2023-01-17T21:44:23.072Z,15.18
2023-01-17T21:46:54.293Z,15.10
2023-01-17T21:49:22.867Z,15.05
2023-01-17T21:51:53.430Z,14.99
2023-01-17T21:54:45.737Z,14.92
2023-01-17T21:57:37.479Z,14.85
2023-01-17T22:00:09.247Z,14.79
2023-01-17T22:02:41.178Z,14.76
2023-01-17T22:05:10.531Z,14.73
2023-01-17T22:08:00.965Z,14.71
2023-01-17T22:10:29.043Z,14.65
2023-01-17T22:12:57.754Z,14.66
2023-01-17T22:15:25.377Z,14.66
2023-01-17T22:17:53.234Z,14.66
2023-01-17T22:20:21.465Z,14.66
2023-01-17T22:22:49.389Z,14.65
2023-01-17T22:25:16.990Z,14.64
2023-01-17T22:27:44.799Z,14.64
2023-01-17T22:30:13.191Z,14.64
2023-01-17T22:32:41.163Z,14.63
2023-01-17T22:35:09.586Z,14.63
2023-01-17T22:37:37.540Z,14.58
2023-01-17T22:40:06.035Z,14.58
2023-01-17T22:42:34.887Z,14.56
2023-01-17T22:45:02.806Z,14.56
2023-01-17T22:47:31.088Z,14.56
2023-01-17T22:49:58.664Z,14.54
2023-01-17T22:52:26.609Z,14.55
2023-01-17T22:54:54.252Z,14.53
2023-01-17T22:57:23.275Z,14.50
2023-01-17T22:59:51.444Z,14.48
2023-01-17T23:02:19.681Z,14.50
2023-01-17T23:04:49.134Z,14.53
2023-01-17T23:07:16.965Z,14.59
2023-01-17T23:09:45.154Z,14.66
2023-01-17T23:12:12.994Z,14.72
2023-01-17T23:14:59.147Z,14.84
2023-01-17T23:17:45.887Z,14.98
2023-01-17T23:20:13.489Z,15.03
2023-01-17T23:22:41.446Z,15.10
2023-01-17T23:25:14.221Z,15.15
2023-01-17T23:28:05.545Z,15.17
2023-01-17T23:30:35.916Z,15.16
2023-01-17T23:33:10.983Z,15.13
2023-01-17T23:35:42.517Z,15.11
2023-01-17T23:38:30.936Z,15.11
2023-01-17T23:41:26.892Z,15.09
2023-01-17T23:43:57.765Z,15.04
2023-01-17T23:46:26.657Z,15.01
2023-01-17T23:48:55.236Z,14.96
2023-01-17T23:51:22.941Z,14.90
2023-01-17T23:53:55.219Z,14.86
2023-01-17T23:56:24.876Z,14.80
2023-01-17T23:58:52.941Z,14.73
